Kezdőlap
METAR-TAF:

METAR-TAF

Repülőterek :

Regional_Airport

Clinton, Oklahoma, Amerikai Egyesült Államok

földrajzi szélesség: 35-32-17N, földrajzi hosszúság: 098-55-17W, magasság: 492 m

Jelenlegi meteorológiai megfigyelések

A jelentés 34 perccel ezelõtt készült, 15:55 UTC
Déli szél 23 kt széllökések: 37 kt
Hőmérséklet 27°C
Páratartalom 62%
Légköri nyomás 1009 hPa
Látótávolság: 16.1 km
Derült ég

METAR: KCLK 181555Z AUTO 18023G37KT 10SM CLR 27/19 A2980 RMK AO2

Idő: 11:29 (16:29 UTC)


TAF: hiányzik

Meteorológiai megfigyelések és előrejelzések több, mint 4000 repülőtéren (METAR és TAF jelentéseket).

A térképen piros és sárga pontok jelzik az elérhető meteorológiai állomásokat.

Mozgassa az egeret a pont fölött, hogy megjelenjen az állomás neve.

Azután kattintson az időjárási megfigyelések és előrejelzések megtekintéséhez.

A térkép megváltoztatása: kattintson a fekete keresztel jelölt zöld gombra ráközelítéshez, a vonallal jelölt zöld gombra távolításhoz, vagy a zöld nyilakra a szomszédos térképek eléréséhez.


METAR-TAF: